KPUB

Pueblo Memorial Airport

Pueblo, Colorado, USA
METAR KPUB 182153Z 12018G30KT 10SM FEW110 32/12 A2991 RMK AO2 PK WND 12030/2146 SLP060 T03220117
Observed Flight Rules
Jun-18 @ 21:53 UTC (39 minutes ago) Visual Flight Rules
Wind Visibility Clouds
120° at 18 knots
 Gusting to 30 knots
10 miles
  • Few at 11,000' AGL
Temperatures Readings
Current 32°C / 90°F
Dewpoint 12°C / 54°F
Humidity 29%
Altimeter 29.91" Hg
Pressure 1006 hPa
Elevation 1420
METAR KPUB 182153Z 12018G30KT 10SM FEW110 32/12 A2991 RMK AO2 PK WND 12030/2146 SLP060 T03220117
Observed Flight Rules
Jun-18 @ 21:53 UTC
(39 minutes ago)
VFR
Wind Visibility
120° at 18 knots
 Gusting to 30 knots
10 miles
Clouds
  • Few at 11,000' AGL
Temperature Dewpoint
32°C / 90°F 12°C / 54°F
Humidity Altimeter Pressure
29% 29.91" Hg 1006 hPa